Time,TemperatureF,DewpointF,PressureIn,WindDirection,WindDirectionDegrees,WindSpeedMPH,WindSpeedGustMPH,Humidity,HourlyPrecipIn,Conditions,Clouds,dailyrainin,SolarRadiationWatts/m^2,SoftwareType,DateUTC
2013-08-25 00:00:00,66.0,56.0,-100.00,South,180,6.0,-999.0,71,-99.99,,,-99.99,0.000000,,2013-08-25 04:00:00,
2013-08-25 00:44:00,66.0,56.0,-100.00,South,180,6.0,-999.0,71,-99.99,,,-99.99,0.000000,,2013-08-25 04:44:00,
2013-08-25 00:54:00,66.0,56.0,-100.00,South,180,6.0,-999.0,71,-99.99,,,-99.99,0.000000,,2013-08-25 04:54:00,
2013-08-25 01:00:00,66.0,57.0,-100.00,South,180,7.0,-999.0,73,-99.99,,,-99.99,0.000000,,2013-08-25 05:00:00,
2013-08-25 01:42:00,66.0,57.0,-100.00,South,180,7.0,-999.0,73,-99.99,,,-99.99,0.000000,,2013-08-25 05:42:00,
2013-08-25 01:52:00,66.0,57.0,-100.00,South,180,7.0,-999.0,73,-99.99,,,-99.99,0.000000,,2013-08-25 05:52:00,
2013-08-25 02:00:00,67.0,58.0,-100.00,SSW,202,7.0,-999.0,74,-99.99,,,-99.99,0.000000,,2013-08-25 06:00:00,
2013-08-25 02:43:00,67.0,58.0,-100.00,SSW,202,7.0,-999.0,74,-99.99,,,-99.99,0.000000,,2013-08-25 06:43:00,
2013-08-25 02:52:00,67.0,58.0,-100.00,SSW,202,7.0,-999.0,74,-99.99,,,-99.99,0.000000,,2013-08-25 06:52:00,
2013-08-25 03:00:00,68.0,59.0,-100.00,SSW,202,7.0,-999.0,73,-99.99,,,-99.99,0.000000,,2013-08-25 07:00:00,
2013-08-25 03:42:00,68.0,59.0,-100.00,SSW,202,7.0,-999.0,73,-99.99,,,-99.99,0.000000,,2013-08-25 07:42:00,
2013-08-25 03:52:00,68.0,59.0,-100.00,SSW,202,7.0,-999.0,73,-99.99,,,-99.99,0.000000,,2013-08-25 07:52:00,
2013-08-25 04:00:00,68.0,60.0,-100.00,SSW,202,7.0,-999.0,75,-99.99,,,-99.99,0.000000,,2013-08-25 08:00:00,
2013-08-25 04:42:00,68.0,60.0,-100.00,SSW,202,7.0,-999.0,75,-99.99,,,-99.99,0.000000,,2013-08-25 08:42:00,
2013-08-25 04:52:00,68.0,60.0,-100.00,SSW,202,7.0,-999.0,75,-99.99,,,-99.99,0.000000,,2013-08-25 08:52:00,
2013-08-25 05:00:00,68.0,61.0,-100.00,SSW,202,8.0,-999.0,77,-99.99,,,-99.99,0.000000,,2013-08-25 09:00:00,
2013-08-25 05:44:00,68.0,61.0,-100.00,SSW,202,8.0,-999.0,77,-99.99,,,-99.99,0.000000,,2013-08-25 09:44:00,
2013-08-25 05:55:00,68.0,61.0,-100.00,SSW,202,8.0,-999.0,77,-99.99,,,-99.99,0.000000,,2013-08-25 09:55:00,
2013-08-25 06:00:00,67.0,62.0,-100.00,SSW,202,11.0,-999.0,82,-99.99,,,-99.99,0.000000,,2013-08-25 10:00:00,
2013-08-25 06:42:00,67.0,62.0,-100.00,SSW,202,11.0,-999.0,82,-99.99,,,-99.99,0.000000,,2013-08-25 10:42:00,
2013-08-25 06:53:00,67.0,62.0,-100.00,SSW,202,11.0,-999.0,82,-99.99,,,-99.99,0.000000,,2013-08-25 10:53:00,
2013-08-25 07:00:00,68.0,63.0,-100.00,SW,225,10.0,-999.0,83,-99.99,,,-99.99,0.000000,,2013-08-25 11:00:00,
2013-08-25 07:42:00,68.0,63.0,-100.00,SW,225,10.0,-999.0,83,-99.99,,,-99.99,0.000000,,2013-08-25 11:42:00,
2013-08-25 07:52:00,68.0,63.0,-100.00,SW,225,10.0,-999.0,83,-99.99,,,-99.99,0.000000,,2013-08-25 11:52:00,
2013-08-25 08:00:00,69.0,64.0,-100.00,SW,225,10.0,-999.0,84,-99.99,,,-99.99,39.439999,,2013-08-25 12:00:00,
2013-08-25 08:43:00,69.0,64.0,-100.00,SW,225,10.0,-999.0,84,-99.99,,,-99.99,39.439999,,2013-08-25 12:43:00,
2013-08-25 08:52:00,69.0,64.0,-100.00,SW,225,10.0,-999.0,84,-99.99,,,-99.99,39.439999,,2013-08-25 12:52:00,
2013-08-25 09:00:00,71.0,65.0,-100.00,SW,225,9.0,-999.0,81,-99.99,,,-99.99,147.320007,,2013-08-25 13:00:00,
2013-08-25 09:42:00,71.0,65.0,-100.00,SW,225,9.0,-999.0,81,-99.99,,,-99.99,147.320007,,2013-08-25 13:42:00,
2013-08-25 09:52:00,71.0,65.0,-100.00,SW,225,9.0,-999.0,81,-99.99,,,-99.99,147.320007,,2013-08-25 13:52:00,
2013-08-25 11:00:00,76.0,67.0,-100.00,SW,225,11.0,-999.0,75,-99.99,,,-99.99,404.839996,,2013-08-25 15:00:00,
2013-08-25 11:44:00,76.0,67.0,-100.00,SW,225,11.0,-999.0,75,-99.99,,,-99.99,404.839996,,2013-08-25 15:44:00,
2013-08-25 11:55:00,76.0,67.0,-100.00,SW,225,11.0,-999.0,75,-99.99,,,-99.99,404.839996,,2013-08-25 15:55:00,
2013-08-25 15:00:00,88.0,72.0,-100.00,SW,225,8.0,-999.0,60,-99.99,,,-99.99,730.799988,,2013-08-25 19:00:00,
2013-08-25 15:42:00,88.0,72.0,-100.00,SW,225,8.0,-999.0,60,-99.99,,,-99.99,730.799988,,2013-08-25 19:42:00,
2013-08-25 15:53:00,88.0,72.0,-100.00,SW,225,8.0,-999.0,60,-99.99,,,-99.99,730.799988,,2013-08-25 19:53:00,
2013-08-25 16:00:00,90.0,72.0,-100.00,WSW,247,6.0,-999.0,55,-99.99,,,-99.99,466.320007,,2013-08-25 20:00:00,
2013-08-25 16:43:00,90.0,72.0,-100.00,WSW,247,6.0,-999.0,55,-99.99,,,-99.99,466.320007,,2013-08-25 20:43:00,
2013-08-25 16:53:00,90.0,72.0,-100.00,WSW,247,6.0,-999.0,55,-99.99,,,-99.99,466.320007,,2013-08-25 20:53:00,
2013-08-25 17:00:00,90.0,72.0,-100.00,WSW,247,6.0,-999.0,55,-99.99,,,-99.99,440.799988,,2013-08-25 21:00:00,
2013-08-25 17:43:00,90.0,72.0,-100.00,WSW,247,6.0,-999.0,55,-99.99,,,-99.99,440.799988,,2013-08-25 21:43:00,
2013-08-25 17:55:00,90.0,72.0,-100.00,WSW,247,6.0,-999.0,55,-99.99,,,-99.99,440.799988,,2013-08-25 21:55:00,
2013-08-25 19:00:00,90.0,74.0,-100.00,SW,225,3.0,-999.0,58,-99.99,,,-99.99,222.720001,,2013-08-25 23:00:00,
2013-08-25 19:43:00,90.0,74.0,-100.00,SW,225,3.0,-999.0,58,-99.99,,,-99.99,222.720001,,2013-08-25 23:43:00,
2013-08-25 19:53:00,90.0,74.0,-100.00,SW,225,3.0,-999.0,58,-99.99,,,-99.99,222.720001,,2013-08-25 23:53:00,
2013-08-25 20:00:00,87.0,74.0,-100.00,WSW,247,3.0,-999.0,65,-99.99,,,-99.99,47.560001,,2013-08-26 00:00:00,
2013-08-25 20:42:00,87.0,74.0,-100.00,WSW,247,3.0,-999.0,65,-99.99,,,-99.99,47.560001,,2013-08-26 00:42:00,
2013-08-25 20:52:00,87.0,74.0,-100.00,WSW,247,3.0,-999.0,65,-99.99,,,-99.99,47.560001,,2013-08-26 00:52:00,
2013-08-25 21:00:00,80.0,72.0,-100.00,ENE,67,0.0,-999.0,77,-99.99,,,-99.99,4.640000,,2013-08-26 01:00:00,
2013-08-25 21:42:00,80.0,72.0,-100.00,ENE,67,0.0,-999.0,77,-99.99,,,-99.99,4.640000,,2013-08-26 01:42:00,
2013-08-25 21:52:00,80.0,72.0,-100.00,ENE,67,0.0,-999.0,77,-99.99,,,-99.99,4.640000,,2013-08-26 01:52:00,
2013-08-25 23:00:00,81.0,72.0,-100.00,SW,225,5.0,-999.0,74,-99.99,,,-99.99,0.000000,,2013-08-26 03:00:00,
2013-08-25 23:44:00,81.0,72.0,-100.00,SW,225,5.0,-999.0,74,-99.99,,,-99.99,0.000000,,2013-08-26 03:44:00,
2013-08-25 23:56:00,81.0,72.0,-100.00,SW,225,5.0,-999.0,74,-99.99,,,-99.99,0.000000,,2013-08-26 03:56:00,